PWSweather.com
Personal Weather Stations
Station Observations
SHAHALMS1
Eftra, Falkenberg, HA

EftraFalkenberg, HA

Lat: 56.85, Lon: 12.65

Elevation: 140

Station Type:

http://hem.passagen.se/risarp101

High Low Average
Temperature 45.5°F7.5°C 26.4°F-3.1°C 39.0°F3.9°C
Dew Point 20.7°F-6.3°C 8.8°F-12.9°C 16.1°F-8.8°C
Winds 11.0 mph 17.7 kmh Calm Calm 6.0 mph NE9.7 kmh NE
Wind Gusts 20.4 mph32.8 kmh -- 11.0 mph17.7 kmh
Humidity 69% 31% 41%
Pressure 30.42 in1030.1 mb 30.30 in1026.1 mb -
Precipitation 0.00 in0.0 mm - -
Hour Temp Dew Point Humidity Winds Wind Gusts Pressure Precip Precip Rate Daily Precip Total
12:00 AM 29.7°F-1.3°C 18.2°F-7.7°C 62% Calm Calm -- 30.30 in1026.1 mb 0.00 in0.0 mm 0.00 in0.0 mm 0.00 in0.0 mm
12:16 AM 29.3°F-1.5°C 18.3°F-7.6°C 63% Calm Calm -- 30.30 in1026.1 mb 0.00 in0.0 mm 0.00 in0.0 mm 0.00 in0.0 mm
12:30 AM 29.1°F-1.6°C 18.1°F-7.7°C 63% Calm Calm -- 30.30 in1026.1 mb 0.00 in0.0 mm 0.00 in0.0 mm 0.00 in0.0 mm
12:45 AM 28.8°F-1.8°C 17.7°F-7.9°C 63% 0.1 mph NE0.2 kmh NE 3.2 mph5.1 kmh 30.30 in1026.1 mb 0.00 in0.0 mm 0.00 in0.0 mm 0.00 in0.0 mm
01:00 AM 28.2°F-2.1°C 17.6°F-8.0°C 64% Calm Calm -- 30.30 in1026.1 mb 0.00 in0.0 mm 0.00 in0.0 mm 0.00 in0.0 mm
01:15 AM 28.0°F-2.2°C 17.4°F-8.1°C 64% Calm Calm -- 30.30 in1026.1 mb 0.00 in0.0 mm 0.00 in0.0 mm 0.00 in0.0 mm
01:30 AM 27.9°F-2.3°C 17.6°F-8.0°C 65% Calm Calm -- 30.30 in1026.1 mb 0.00 in0.0 mm 0.00 in0.0 mm 0.00 in0.0 mm
01:45 AM 28.0°F-2.2°C 17.8°F-7.9°C 65% Calm Calm -- 30.30 in1026.1 mb 0.00 in0.0 mm 0.00 in0.0 mm 0.00 in0.0 mm
02:00 AM 28.2°F-2.1°C 18.3°F-7.6°C 66% Calm Calm -- 30.33 in1027.1 mb 0.00 in0.0 mm 0.00 in0.0 mm 0.00 in0.0 mm
02:15 AM 28.0°F-2.2°C 18.1°F-7.7°C 66% Calm Calm -- 30.33 in1027.1 mb 0.00 in0.0 mm 0.00 in0.0 mm 0.00 in0.0 mm
02:30 AM 28.0°F-2.2°C 18.5°F-7.5°C 67% 0.3 mph E0.5 kmh E 3.9 mph6.3 kmh 30.33 in1027.1 mb 0.00 in0.0 mm 0.00 in0.0 mm 0.00 in0.0 mm
02:45 AM 27.9°F-2.3°C 18.7°F-7.4°C 68% Calm Calm -- 30.33 in1027.1 mb 0.00 in0.0 mm 0.00 in0.0 mm 0.00 in0.0 mm
03:00 AM 27.9°F-2.3°C 18.7°F-7.4°C 68% Calm Calm -- 30.33 in1027.1 mb 0.00 in0.0 mm 0.00 in0.0 mm 0.00 in0.0 mm
03:15 AM 27.9°F-2.3°C 19.0°F-7.2°C 69% Calm Calm -- 30.33 in1027.1 mb 0.00 in0.0 mm 0.00 in0.0 mm 0.00 in0.0 mm
03:30 AM 27.5°F-2.5°C 18.7°F-7.4°C 69% 0.4 mph NE0.6 kmh NE 4.3 mph6.9 kmh 30.33 in1027.1 mb 0.00 in0.0 mm 0.00 in0.0 mm 0.00 in0.0 mm
03:45 AM 27.5°F-2.5°C 18.7°F-7.4°C 69% 1.6 mph NE2.6 kmh NE 7.5 mph12.1 kmh 30.33 in1027.1 mb 0.00 in0.0 mm 0.00 in0.0 mm 0.00 in0.0 mm
04:00 AM 27.0°F-2.8°C 18.1°F-7.7°C 69% 0.6 mph ENE1.0 kmh ENE 5.4 mph8.7 kmh 30.36 in1028.1 mb 0.00 in0.0 mm 0.00 in0.0 mm 0.00 in0.0 mm
04:15 AM 26.6°F-3.0°C 17.8°F-7.9°C 69% 0.3 mph ENE0.5 kmh ENE 5.4 mph8.7 kmh 30.36 in1028.1 mb 0.00 in0.0 mm 0.00 in0.0 mm 0.00 in0.0 mm
04:30 AM 26.8°F-2.9°C 18.0°F-7.8°C 69% 1.7 mph NE2.7 kmh NE 6.1 mph9.8 kmh 30.36 in1028.1 mb 0.00 in0.0 mm 0.00 in0.0 mm 0.00 in0.0 mm
04:45 AM 26.6°F-3.0°C 17.8°F-7.9°C 69% 1.8 mph E2.9 kmh E 6.1 mph9.8 kmh 30.36 in1028.1 mb 0.00 in0.0 mm 0.00 in0.0 mm 0.00 in0.0 mm
05:00 AM 26.4°F-3.1°C 17.3°F-8.2°C 68% 0.9 mph E1.4 kmh E 5.7 mph9.2 kmh 30.36 in1028.1 mb 0.00 in0.0 mm 0.00 in0.0 mm 0.00 in0.0 mm
05:15 AM 26.4°F-3.1°C 17.3°F-8.2°C 68% 0.2 mph E0.3 kmh E 3.9 mph6.3 kmh 30.36 in1028.1 mb 0.00 in0.0 mm 0.00 in0.0 mm 0.00 in0.0 mm
05:30 AM 26.6°F-3.0°C 17.5°F-8.1°C 68% Calm Calm -- 30.33 in1027.1 mb 0.00 in0.0 mm 0.00 in0.0 mm 0.00 in0.0 mm
05:45 AM 28.0°F-2.2°C 19.2°F-7.1°C 69% Calm Calm -- 30.33 in1027.1 mb 0.00 in0.0 mm 0.00 in0.0 mm 0.00 in0.0 mm
06:00 AM 28.4°F-2.0°C 18.8°F-7.3°C 67% Calm Calm -- 30.33 in1027.1 mb 0.00 in0.0 mm 0.00 in0.0 mm 0.00 in0.0 mm
06:15 AM 28.9°F-1.7°C 19.0°F-7.2°C 66% 1.0 mph E1.6 kmh E 6.1 mph9.8 kmh 30.33 in1027.1 mb 0.00 in0.0 mm 0.00 in0.0 mm 0.00 in0.0 mm
06:30 AM 30.6°F-0.8°C 19.8°F-6.8°C 64% Calm Calm -- 30.36 in1028.1 mb 0.00 in0.0 mm 0.00 in0.0 mm 0.00 in0.0 mm
06:45 AM 32.2°F0.1°C 20.6°F-6.3°C 62% 3.5 mph ENE5.6 kmh ENE 8.9 mph14.3 kmh 30.36 in1028.1 mb 0.00 in0.0 mm 0.00 in0.0 mm 0.00 in0.0 mm
07:00 AM 33.3°F0.7°C 19.7°F-6.8°C 57% 6.1 mph ENE9.8 kmh ENE 10.4 mph16.7 kmh 30.36 in1028.1 mb 0.00 in0.0 mm 0.00 in0.0 mm 0.00 in0.0 mm
07:15 AM 34.0°F1.1°C 19.1°F-7.2°C 54% 6.1 mph NE9.8 kmh NE 8.6 mph13.8 kmh 30.36 in1028.1 mb 0.00 in0.0 mm 0.00 in0.0 mm 0.00 in0.0 mm
07:30 AM 34.5°F1.4°C 19.1°F-7.2°C 53% 6.3 mph NE10.1 kmh NE 12.2 mph19.6 kmh 30.39 in1029.1 mb 0.00 in0.0 mm 0.00 in0.0 mm 0.00 in0.0 mm
07:45 AM 35.4°F1.9°C 19.5°F-6.9°C 52% 7.0 mph NE11.3 kmh NE 10.4 mph16.7 kmh 30.36 in1028.1 mb 0.00 in0.0 mm 0.00 in0.0 mm 0.00 in0.0 mm
08:00 AM 36.7°F2.6°C 20.7°F-6.3°C 52% 5.6 mph NE9.0 kmh NE 8.9 mph14.3 kmh 30.39 in1029.1 mb 0.00 in0.0 mm 0.00 in0.0 mm 0.00 in0.0 mm
08:16 AM 36.3°F2.4°C 19.9°F-6.7°C 51% 7.0 mph NNE11.3 kmh NNE 12.9 mph20.8 kmh 30.39 in1029.1 mb 0.00 in0.0 mm 0.00 in0.0 mm 0.00 in0.0 mm
08:30 AM 35.2°F1.8°C 18.9°F-7.3°C 51% 8.4 mph N13.5 kmh N 16.5 mph26.6 kmh 30.39 in1029.1 mb 0.00 in0.0 mm 0.00 in0.0 mm 0.00 in0.0 mm
08:45 AM 36.1°F2.3°C 19.7°F-6.8°C 51% 6.3 mph NNE10.1 kmh NNE 12.5 mph20.1 kmh 30.39 in1029.1 mb 0.00 in0.0 mm 0.00 in0.0 mm 0.00 in0.0 mm
09:00 AM 36.1°F2.3°C 19.3°F-7.1°C 50% 8.8 mph N14.2 kmh N 16.5 mph26.6 kmh 30.39 in1029.1 mb 0.00 in0.0 mm 0.00 in0.0 mm 0.00 in0.0 mm
09:15 AM 36.1°F2.3°C 19.3°F-7.1°C 50% 6.6 mph NNE10.6 kmh NNE 14.0 mph22.5 kmh 30.39 in1029.1 mb 0.00 in0.0 mm 0.00 in0.0 mm 0.00 in0.0 mm
09:30 AM 37.0°F2.8°C 19.1°F-7.2°C 48% 9.3 mph N15.0 kmh N 16.1 mph25.9 kmh 30.39 in1029.1 mb 0.00 in0.0 mm 0.00 in0.0 mm 0.00 in0.0 mm
09:45 AM 37.2°F2.9°C 18.3°F-7.6°C 46% 9.4 mph N15.1 kmh N 16.1 mph25.9 kmh 30.39 in1029.1 mb 0.00 in0.0 mm 0.00 in0.0 mm 0.00 in0.0 mm
10:00 AM 38.1°F3.4°C 19.6°F-6.9°C 47% 7.1 mph N11.4 kmh N 16.1 mph25.9 kmh 30.39 in1029.1 mb 0.00 in0.0 mm 0.00 in0.0 mm 0.00 in0.0 mm
10:15 AM 38.7°F3.7°C 19.6°F-6.9°C 46% 7.6 mph NNE12.2 kmh NNE 15.0 mph24.1 kmh 30.39 in1029.1 mb 0.00 in0.0 mm 0.00 in0.0 mm 0.00 in0.0 mm
10:30 AM 39.0°F3.9°C 19.4°F-7.0°C 45% 7.2 mph NNE11.6 kmh NNE 16.1 mph25.9 kmh 30.36 in1028.1 mb 0.00 in0.0 mm 0.00 in0.0 mm 0.00 in0.0 mm
10:45 AM 39.0°F3.9°C 18.9°F-7.3°C 44% 7.9 mph N12.7 kmh N 17.5 mph28.2 kmh 30.36 in1028.1 mb 0.00 in0.0 mm 0.00 in0.0 mm 0.00 in0.0 mm
11:00 AM 39.2°F4.0°C 18.0°F-7.8°C 42% 10.4 mph N16.7 kmh N 19.3 mph31.1 kmh 30.36 in1028.1 mb 0.00 in0.0 mm 0.00 in0.0 mm 0.00 in0.0 mm
11:15 AM 39.6°F4.2°C 17.8°F-7.9°C 41% 10.3 mph NNE16.6 kmh NNE 19.3 mph31.1 kmh 30.36 in1028.1 mb 0.00 in0.0 mm 0.00 in0.0 mm 0.00 in0.0 mm
11:30 AM 39.7°F4.3°C 17.9°F-7.8°C 41% 9.7 mph N15.6 kmh N 20.0 mph32.2 kmh 30.36 in1028.1 mb 0.00 in0.0 mm 0.00 in0.0 mm 0.00 in0.0 mm
11:45 AM 40.5°F4.7°C 18.0°F-7.8°C 40% 9.0 mph N14.5 kmh N 20.0 mph32.2 kmh 30.36 in1028.1 mb 0.00 in0.0 mm 0.00 in0.0 mm 0.00 in0.0 mm
12:00 PM 41.2°F5.1°C 19.2°F-7.1°C 41% 8.0 mph NE12.9 kmh NE 14.3 mph23.0 kmh 30.33 in1027.1 mb 0.00 in0.0 mm 0.00 in0.0 mm 0.00 in0.0 mm
12:15 PM 42.3°F5.7°C 19.6°F-6.9°C 40% 5.5 mph NE8.9 kmh NE 20.4 mph32.8 kmh 30.33 in1027.1 mb 0.00 in0.0 mm 0.00 in0.0 mm 0.00 in0.0 mm
12:30 PM 42.1°F5.6°C 18.9°F-7.3°C 39% 8.3 mph N13.4 kmh N 19.7 mph31.7 kmh 30.36 in1028.1 mb 0.00 in0.0 mm 0.00 in0.0 mm 0.00 in0.0 mm
12:45 PM 42.4°F5.8°C 17.3°F-8.2°C 36% 11.0 mph N17.7 kmh N 20.4 mph32.8 kmh 30.36 in1028.1 mb 0.00 in0.0 mm 0.00 in0.0 mm 0.00 in0.0 mm
01:00 PM 43.2°F6.2°C 19.8°F-6.8°C 39% 5.8 mph NE9.3 kmh NE 11.5 mph18.5 kmh 30.36 in1028.1 mb 0.00 in0.0 mm 0.00 in0.0 mm 0.00 in0.0 mm
01:15 PM 43.7°F6.5°C 18.5°F-7.5°C 36% 7.4 mph NNE11.9 kmh NNE 15.7 mph25.3 kmh 30.36 in1028.1 mb 0.00 in0.0 mm 0.00 in0.0 mm 0.00 in0.0 mm
01:30 PM 43.9°F6.6°C 18.6°F-7.4°C 36% 8.0 mph N12.9 kmh N 16.8 mph27.0 kmh 30.33 in1027.1 mb 0.00 in0.0 mm 0.00 in0.0 mm 0.00 in0.0 mm
01:45 PM 44.2°F6.8°C 18.3°F-7.6°C 35% 7.0 mph NE11.3 kmh NE 13.6 mph21.9 kmh 30.33 in1027.1 mb 0.00 in0.0 mm 0.00 in0.0 mm 0.00 in0.0 mm
02:00 PM 44.6°F7.0°C 17.9°F-7.8°C 34% 9.2 mph N14.8 kmh N 16.5 mph26.6 kmh 30.36 in1028.1 mb 0.00 in0.0 mm 0.00 in0.0 mm 0.00 in0.0 mm
02:15 PM 44.2°F6.8°C 16.9°F-8.4°C 33% 6.8 mph NE10.9 kmh NE 12.5 mph20.1 kmh 30.36 in1028.1 mb 0.00 in0.0 mm 0.00 in0.0 mm 0.00 in0.0 mm
02:30 PM 44.6°F7.0°C 16.5°F-8.6°C 32% 8.3 mph N13.4 kmh N 17.2 mph27.7 kmh 30.33 in1027.1 mb 0.00 in0.0 mm 0.00 in0.0 mm 0.00 in0.0 mm
02:45 PM 44.2°F6.8°C 16.9°F-8.4°C 33% 9.3 mph N15.0 kmh N 17.5 mph28.2 kmh 30.36 in1028.1 mb 0.00 in0.0 mm 0.00 in0.0 mm 0.00 in0.0 mm
03:00 PM 44.8°F7.1°C 17.4°F-8.1°C 33% 5.2 mph NE8.4 kmh NE 8.9 mph14.3 kmh 30.36 in1028.1 mb 0.00 in0.0 mm 0.00 in0.0 mm 0.00 in0.0 mm
03:15 PM 45.1°F7.3°C 17.7°F-7.9°C 33% 5.3 mph NNE8.5 kmh NNE 15.4 mph24.8 kmh 30.39 in1029.1 mb 0.00 in0.0 mm 0.00 in0.0 mm 0.00 in0.0 mm
03:30 PM 44.8°F7.1°C 16.7°F-8.5°C 32% 9.0 mph N14.5 kmh N 16.5 mph26.6 kmh 30.36 in1028.1 mb 0.00 in0.0 mm 0.00 in0.0 mm 0.00 in0.0 mm
03:45 PM 45.3°F7.4°C 17.1°F-8.3°C 32% 7.7 mph NE12.4 kmh NE 16.8 mph27.0 kmh 30.36 in1028.1 mb 0.00 in0.0 mm 0.00 in0.0 mm 0.00 in0.0 mm
04:00 PM 45.3°F7.4°C 17.1°F-8.3°C 32% 7.8 mph NNE12.6 kmh NNE 16.5 mph26.6 kmh 30.36 in1028.1 mb 0.00 in0.0 mm 0.00 in0.0 mm 0.00 in0.0 mm
04:16 PM 45.5°F7.5°C 17.3°F-8.2°C 32% 6.9 mph N11.1 kmh N 12.9 mph20.8 kmh 30.36 in1028.1 mb 0.00 in0.0 mm 0.00 in0.0 mm 0.00 in0.0 mm
04:30 PM 45.1°F7.3°C 17.0°F-8.3°C 32% 7.3 mph N11.7 kmh N 14.0 mph22.5 kmh 30.36 in1028.1 mb 0.00 in0.0 mm 0.00 in0.0 mm 0.00 in0.0 mm
04:53 PM 45.1°F7.3°C 16.3°F-8.7°C 31% 7.6 mph NNE12.2 kmh NNE 9.3 mph15.0 kmh 30.36 in1028.1 mb 0.00 in0.0 mm 0.00 in0.0 mm 0.00 in0.0 mm
04:54 PM 45.0°F7.2°C 16.1°F-8.8°C 31% 9.5 mph N15.3 kmh N 14.0 mph22.5 kmh 30.36 in1028.1 mb 0.00 in0.0 mm 0.00 in0.0 mm 0.00 in0.0 mm
04:55 PM 45.0°F7.2°C 16.1°F-8.8°C 31% 10.1 mph N16.3 kmh N 14.0 mph22.5 kmh 30.36 in1028.1 mb 0.00 in0.0 mm 0.00 in0.0 mm 0.00 in0.0 mm
04:56 PM 45.0°F7.2°C 16.1°F-8.8°C 31% 9.4 mph NNE15.1 kmh NNE 14.0 mph22.5 kmh 30.36 in1028.1 mb 0.00 in0.0 mm 0.00 in0.0 mm 0.00 in0.0 mm
04:57 PM 45.0°F7.2°C 16.1°F-8.8°C 31% 8.7 mph N14.0 kmh N 14.0 mph22.5 kmh 30.36 in1028.1 mb 0.00 in0.0 mm 0.00 in0.0 mm 0.00 in0.0 mm
04:58 PM 45.0°F7.2°C 16.1°F-8.8°C 31% 8.5 mph N13.7 kmh N 14.0 mph22.5 kmh 30.36 in1028.1 mb 0.00 in0.0 mm 0.00 in0.0 mm 0.00 in0.0 mm
04:59 PM 45.1°F7.3°C 16.3°F-8.7°C 31% 8.0 mph N12.9 kmh N 14.0 mph22.5 kmh 30.36 in1028.1 mb 0.00 in0.0 mm 0.00 in0.0 mm 0.00 in0.0 mm
05:00 PM 45.1°F7.3°C 16.3°F-8.7°C 31% 7.9 mph N12.7 kmh N 14.0 mph22.5 kmh 30.36 in1028.1 mb 0.00 in0.0 mm 0.00 in0.0 mm 0.00 in0.0 mm
05:01 PM 45.1°F7.3°C 16.3°F-8.7°C 31% 7.9 mph N12.7 kmh N 14.0 mph22.5 kmh 30.36 in1028.1 mb 0.00 in0.0 mm 0.00 in0.0 mm 0.00 in0.0 mm
05:02 PM 45.1°F7.3°C 16.3°F-8.7°C 31% 7.7 mph N12.4 kmh N 14.0 mph22.5 kmh 30.36 in1028.1 mb 0.00 in0.0 mm 0.00 in0.0 mm 0.00 in0.0 mm
05:03 PM 45.1°F7.3°C 16.3°F-8.7°C 31% 7.6 mph N12.2 kmh N 14.0 mph22.5 kmh 30.36 in1028.1 mb 0.00 in0.0 mm 0.00 in0.0 mm 0.00 in0.0 mm
05:04 PM 45.1°F7.3°C 16.3°F-8.7°C 31% 7.0 mph N11.3 kmh N 14.0 mph22.5 kmh 30.36 in1028.1 mb 0.00 in0.0 mm 0.00 in0.0 mm 0.00 in0.0 mm
05:05 PM 45.1°F7.3°C 16.3°F-8.7°C 31% 7.2 mph N11.6 kmh N 14.0 mph22.5 kmh 30.36 in1028.1 mb 0.00 in0.0 mm 0.00 in0.0 mm 0.00 in0.0 mm
05:06 PM 45.1°F7.3°C 16.3°F-8.7°C 31% 7.1 mph N11.4 kmh N 12.5 mph20.1 kmh 30.36 in1028.1 mb 0.00 in0.0 mm 0.00 in0.0 mm 0.00 in0.0 mm
05:07 PM 45.1°F7.3°C 16.3°F-8.7°C 31% 7.3 mph N11.7 kmh N 12.5 mph20.1 kmh 30.36 in1028.1 mb 0.00 in0.0 mm 0.00 in0.0 mm 0.00 in0.0 mm
05:08 PM 45.1°F7.3°C 16.3°F-8.7°C 31% 7.4 mph N11.9 kmh N 12.5 mph20.1 kmh 30.36 in1028.1 mb 0.00 in0.0 mm 0.00 in0.0 mm 0.00 in0.0 mm
05:09 PM 45.1°F7.3°C 16.3°F-8.7°C 31% 7.6 mph N12.2 kmh N 12.5 mph20.1 kmh 30.36 in1028.1 mb 0.00 in0.0 mm 0.00 in0.0 mm 0.00 in0.0 mm
05:10 PM 45.1°F7.3°C 16.3°F-8.7°C 31% 7.6 mph N12.2 kmh N 12.5 mph20.1 kmh 30.36 in1028.1 mb 0.00 in0.0 mm 0.00 in0.0 mm 0.00 in0.0 mm
05:11 PM 45.1°F7.3°C 16.3°F-8.7°C 31% 7.7 mph N12.4 kmh N 12.5 mph20.1 kmh 30.36 in1028.1 mb 0.00 in0.0 mm 0.00 in0.0 mm 0.00 in0.0 mm
05:12 PM 45.1°F7.3°C 16.3°F-8.7°C 31% 7.6 mph N12.2 kmh N 12.5 mph20.1 kmh 30.36 in1028.1 mb 0.00 in0.0 mm 0.00 in0.0 mm 0.00 in0.0 mm
05:13 PM 45.1°F7.3°C 16.3°F-8.7°C 31% 7.5 mph N12.1 kmh N 12.5 mph20.1 kmh 30.36 in1028.1 mb 0.00 in0.0 mm 0.00 in0.0 mm 0.00 in0.0 mm
05:14 PM 45.1°F7.3°C 17.0°F-8.3°C 32% 7.7 mph N12.4 kmh N 12.5 mph20.1 kmh 30.36 in1028.1 mb 0.00 in0.0 mm 0.00 in0.0 mm 0.00 in0.0 mm
05:15 PM 45.1°F7.3°C 16.3°F-8.7°C 31% 7.4 mph N11.9 kmh N 12.5 mph20.1 kmh 30.36 in1028.1 mb 0.00 in0.0 mm 0.00 in0.0 mm 0.00 in0.0 mm
05:16 PM 45.1°F7.3°C 16.3°F-8.7°C 31% 7.5 mph N12.1 kmh N 13.6 mph21.9 kmh 30.36 in1028.1 mb 0.00 in0.0 mm 0.00 in0.0 mm 0.00 in0.0 mm
05:17 PM 45.1°F7.3°C 16.3°F-8.7°C 31% 7.5 mph N12.1 kmh N 13.6 mph21.9 kmh 30.36 in1028.1 mb 0.00 in0.0 mm 0.00 in0.0 mm 0.00 in0.0 mm
05:18 PM 45.0°F7.2°C 16.1°F-8.8°C 31% 7.8 mph N12.6 kmh N 14.0 mph22.5 kmh 30.36 in1028.1 mb 0.00 in0.0 mm 0.00 in0.0 mm 0.00 in0.0 mm
05:19 PM 45.0°F7.2°C 16.1°F-8.8°C 31% 8.5 mph N13.7 kmh N 17.5 mph28.2 kmh 30.36 in1028.1 mb 0.00 in0.0 mm 0.00 in0.0 mm 0.00 in0.0 mm
05:20 PM 45.0°F7.2°C 16.1°F-8.8°C 31% 8.7 mph N14.0 kmh N 17.5 mph28.2 kmh 30.36 in1028.1 mb 0.00 in0.0 mm 0.00 in0.0 mm 0.00 in0.0 mm
05:21 PM 44.8°F7.1°C 15.9°F-8.9°C 31% 8.9 mph N14.3 kmh N 17.5 mph28.2 kmh 30.36 in1028.1 mb 0.00 in0.0 mm 0.00 in0.0 mm 0.00 in0.0 mm
05:22 PM 44.8°F7.1°C 15.9°F-8.9°C 31% 8.9 mph N14.3 kmh N 17.5 mph28.2 kmh 30.33 in1027.1 mb 0.00 in0.0 mm 0.00 in0.0 mm 0.00 in0.0 mm
05:23 PM 44.8°F7.1°C 15.9°F-8.9°C 31% 9.2 mph N14.8 kmh N 17.5 mph28.2 kmh 30.33 in1027.1 mb 0.00 in0.0 mm 0.00 in0.0 mm 0.00 in0.0 mm
05:24 PM 44.8°F7.1°C 15.9°F-8.9°C 31% 9.4 mph N15.1 kmh N 17.5 mph28.2 kmh 30.33 in1027.1 mb 0.00 in0.0 mm 0.00 in0.0 mm 0.00 in0.0 mm
05:25 PM 44.8°F7.1°C 15.9°F-8.9°C 31% 9.5 mph N15.3 kmh N 17.5 mph28.2 kmh 30.33 in1027.1 mb 0.00 in0.0 mm 0.00 in0.0 mm 0.00 in0.0 mm
05:26 PM 44.8°F7.1°C 15.9°F-8.9°C 31% 9.3 mph N15.0 kmh N 17.5 mph28.2 kmh 30.33 in1027.1 mb 0.00 in0.0 mm 0.00 in0.0 mm 0.00 in0.0 mm
05:27 PM 44.6°F7.0°C 15.8°F-9.0°C 31% 9.2 mph N14.8 kmh N 17.5 mph28.2 kmh 30.33 in1027.1 mb 0.00 in0.0 mm 0.00 in0.0 mm 0.00 in0.0 mm
05:28 PM 44.6°F7.0°C 15.8°F-9.0°C 31% 8.5 mph N13.7 kmh N 17.5 mph28.2 kmh 30.33 in1027.1 mb 0.00 in0.0 mm 0.00 in0.0 mm 0.00 in0.0 mm
05:29 PM 44.6°F7.0°C 15.8°F-9.0°C 31% 7.6 mph N12.2 kmh N 13.6 mph21.9 kmh 30.33 in1027.1 mb 0.00 in0.0 mm 0.00 in0.0 mm 0.00 in0.0 mm
05:30 PM 44.6°F7.0°C 15.8°F-9.0°C 31% 7.3 mph N11.7 kmh N 13.6 mph21.9 kmh 30.33 in1027.1 mb 0.00 in0.0 mm 0.00 in0.0 mm 0.00 in0.0 mm
05:31 PM 44.6°F7.0°C 15.8°F-9.0°C 31% 6.9 mph NNE11.1 kmh NNE 12.2 mph19.6 kmh 30.33 in1027.1 mb 0.00 in0.0 mm 0.00 in0.0 mm 0.00 in0.0 mm
05:32 PM 44.4°F6.9°C 15.6°F-9.1°C 31% 7.1 mph N11.4 kmh N 12.2 mph19.6 kmh 30.33 in1027.1 mb 0.00 in0.0 mm 0.00 in0.0 mm 0.00 in0.0 mm
05:33 PM 44.4°F6.9°C 15.6°F-9.1°C 31% 7.2 mph NNE11.6 kmh NNE 12.2 mph19.6 kmh 30.33 in1027.1 mb 0.00 in0.0 mm 0.00 in0.0 mm 0.00 in0.0 mm
05:34 PM 44.4°F6.9°C 15.6°F-9.1°C 31% 7.0 mph NNE11.3 kmh NNE 12.2 mph19.6 kmh 30.33 in1027.1 mb 0.00 in0.0 mm 0.00 in0.0 mm 0.00 in0.0 mm
05:35 PM 44.4°F6.9°C 15.6°F-9.1°C 31% 6.5 mph NNE10.5 kmh NNE 10.7 mph17.2 kmh 30.33 in1027.1 mb 0.00 in0.0 mm 0.00 in0.0 mm 0.00 in0.0 mm
05:36 PM 44.4°F6.9°C 15.6°F-9.1°C 31% 6.6 mph NNE10.6 kmh NNE 12.9 mph20.8 kmh 30.33 in1027.1 mb 0.00 in0.0 mm 0.00 in0.0 mm 0.00 in0.0 mm
05:37 PM 44.4°F6.9°C 15.6°F-9.1°C 31% 6.9 mph NNE11.1 kmh NNE 12.9 mph20.8 kmh 30.33 in1027.1 mb 0.00 in0.0 mm 0.00 in0.0 mm 0.00 in0.0 mm
05:38 PM 44.2°F6.8°C 15.5°F-9.2°C 31% 7.4 mph N11.9 kmh N 12.9 mph20.8 kmh 30.33 in1027.1 mb 0.00 in0.0 mm 0.00 in0.0 mm 0.00 in0.0 mm
05:39 PM 44.2°F6.8°C 15.5°F-9.2°C 31% 7.6 mph N12.2 kmh N 12.9 mph20.8 kmh 30.33 in1027.1 mb 0.00 in0.0 mm 0.00 in0.0 mm 0.00 in0.0 mm
05:40 PM 44.2°F6.8°C 15.5°F-9.2°C 31% 8.0 mph N12.9 kmh N 12.9 mph20.8 kmh 30.33 in1027.1 mb 0.00 in0.0 mm 0.00 in0.0 mm 0.00 in0.0 mm
05:41 PM 44.1°F6.7°C 15.3°F-9.3°C 31% 8.1 mph N13.0 kmh N 12.9 mph20.8 kmh 30.33 in1027.1 mb 0.00 in0.0 mm 0.00 in0.0 mm 0.00 in0.0 mm
05:42 PM 44.1°F6.7°C 15.3°F-9.3°C 31% 8.0 mph N12.9 kmh N 12.9 mph20.8 kmh 30.33 in1027.1 mb 0.00 in0.0 mm 0.00 in0.0 mm 0.00 in0.0 mm
05:43 PM 43.9°F6.6°C 15.2°F-9.3°C 31% 7.6 mph N12.2 kmh N 12.9 mph20.8 kmh 30.33 in1027.1 mb 0.00 in0.0 mm 0.00 in0.0 mm 0.00 in0.0 mm
05:44 PM 43.9°F6.6°C 15.2°F-9.3°C 31% 7.8 mph N12.6 kmh N 12.9 mph20.8 kmh 30.33 in1027.1 mb 0.00 in0.0 mm 0.00 in0.0 mm 0.00 in0.0 mm
05:45 PM 43.9°F6.6°C 15.2°F-9.3°C 31% 8.0 mph N12.9 kmh N 12.9 mph20.8 kmh 30.33 in1027.1 mb 0.00 in0.0 mm 0.00 in0.0 mm 0.00 in0.0 mm
05:46 PM 43.7°F6.5°C 15.0°F-9.4°C 31% 7.7 mph N12.4 kmh N 12.2 mph19.6 kmh 30.33 in1027.1 mb 0.00 in0.0 mm 0.00 in0.0 mm 0.00 in0.0 mm
05:47 PM 43.7°F6.5°C 15.0°F-9.4°C 31% 7.2 mph N11.6 kmh N 12.2 mph19.6 kmh 30.33 in1027.1 mb 0.00 in0.0 mm 0.00 in0.0 mm 0.00 in0.0 mm
05:48 PM 43.7°F6.5°C 15.0°F-9.4°C 31% 7.1 mph N11.4 kmh N 12.2 mph19.6 kmh 30.33 in1027.1 mb 0.00 in0.0 mm 0.00 in0.0 mm 0.00 in0.0 mm
05:49 PM 43.7°F6.5°C 15.0°F-9.4°C 31% 7.0 mph NNE11.3 kmh NNE 12.2 mph19.6 kmh 30.33 in1027.1 mb 0.00 in0.0 mm 0.00 in0.0 mm 0.00 in0.0 mm
05:50 PM 43.7°F6.5°C 15.0°F-9.4°C 31% 6.9 mph N11.1 kmh N 12.2 mph19.6 kmh 30.33 in1027.1 mb 0.00 in0.0 mm 0.00 in0.0 mm 0.00 in0.0 mm
05:51 PM 43.7°F6.5°C 15.0°F-9.4°C 31% 6.4 mph NNE10.3 kmh NNE 10.0 mph16.1 kmh 30.33 in1027.1 mb 0.00 in0.0 mm 0.00 in0.0 mm 0.00 in0.0 mm
05:52 PM 43.7°F6.5°C 15.0°F-9.4°C 31% 6.5 mph NNE10.5 kmh NNE 10.0 mph16.1 kmh 30.36 in1028.1 mb 0.00 in0.0 mm 0.00 in0.0 mm 0.00 in0.0 mm
06:00 PM 42.4°F5.8°C 13.9°F-10.1°C 31% 7.7 mph N12.4 kmh N 13.6 mph21.9 kmh 30.36 in1028.1 mb 0.00 in0.0 mm 0.00 in0.0 mm 0.00 in0.0 mm
06:15 PM 41.9°F5.5°C 14.1°F-9.9°C 32% 5.9 mph N9.5 kmh N 11.5 mph18.5 kmh 30.36 in1028.1 mb 0.00 in0.0 mm 0.00 in0.0 mm 0.00 in0.0 mm
06:30 PM 41.2°F5.1°C 13.5°F-10.3°C 32% 5.3 mph NNE8.5 kmh NNE 9.7 mph15.6 kmh 30.39 in1029.1 mb 0.00 in0.0 mm 0.00 in0.0 mm 0.00 in0.0 mm
06:45 PM 40.3°F4.6°C 12.7°F-10.7°C 32% 5.4 mph NE8.7 kmh NE 9.7 mph15.6 kmh 30.36 in1028.1 mb 0.00 in0.0 mm 0.00 in0.0 mm 0.00 in0.0 mm
07:00 PM 39.4°F4.1°C 12.6°F-10.8°C 33% 2.6 mph NE4.2 kmh NE 8.9 mph14.3 kmh 30.33 in1027.1 mb 0.00 in0.0 mm 0.00 in0.0 mm 0.00 in0.0 mm
07:15 PM 38.1°F3.4°C 11.5°F-11.4°C 33% 0.8 mph NE1.3 kmh NE 5.4 mph8.7 kmh 30.36 in1028.1 mb 0.00 in0.0 mm 0.00 in0.0 mm 0.00 in0.0 mm
07:30 PM 37.0°F2.8°C 10.6°F-11.9°C 33% 0.4 mph NE0.6 kmh NE 5.7 mph9.2 kmh 30.36 in1028.1 mb 0.00 in0.0 mm 0.00 in0.0 mm 0.00 in0.0 mm
07:45 PM 36.3°F2.4°C 10.6°F-11.9°C 34% 1.6 mph ENE2.6 kmh ENE 8.6 mph13.8 kmh 30.36 in1028.1 mb 0.00 in0.0 mm 0.00 in0.0 mm 0.00 in0.0 mm
08:00 PM 35.8°F2.1°C 10.1°F-12.2°C 34% 1.6 mph ENE2.6 kmh ENE 6.8 mph10.9 kmh 30.39 in1029.1 mb 0.00 in0.0 mm 0.00 in0.0 mm 0.00 in0.0 mm
08:15 PM 35.2°F1.8°C 10.3°F-12.1°C 35% 2.4 mph ENE3.9 kmh ENE 9.7 mph15.6 kmh 30.39 in1029.1 mb 0.00 in0.0 mm 0.00 in0.0 mm 0.00 in0.0 mm
08:30 PM 34.7°F1.5°C 9.8°F-12.3°C 35% 1.5 mph ENE2.4 kmh ENE 7.9 mph12.7 kmh 30.39 in1029.1 mb 0.00 in0.0 mm 0.00 in0.0 mm 0.00 in0.0 mm
08:45 PM 34.3°F1.3°C 9.5°F-12.5°C 35% 1.9 mph NE3.1 kmh NE 6.4 mph10.3 kmh 30.39 in1029.1 mb 0.00 in0.0 mm 0.00 in0.0 mm 0.00 in0.0 mm
09:00 PM 34.0°F1.1°C 9.2°F-12.7°C 35% 0.9 mph NE1.4 kmh NE 6.4 mph10.3 kmh 30.39 in1029.1 mb 0.00 in0.0 mm 0.00 in0.0 mm 0.00 in0.0 mm
09:15 PM 33.8°F1.0°C 9.6°F-12.4°C 36% 2.2 mph NE3.5 kmh NE 6.8 mph10.9 kmh 30.39 in1029.1 mb 0.00 in0.0 mm 0.00 in0.0 mm 0.00 in0.0 mm
09:30 PM 33.8°F1.0°C 9.6°F-12.4°C 36% 3.0 mph NE4.8 kmh NE 7.9 mph12.7 kmh 30.39 in1029.1 mb 0.00 in0.0 mm 0.00 in0.0 mm 0.00 in0.0 mm
09:45 PM 33.8°F1.0°C 10.2°F-12.1°C 37% 1.7 mph NE2.7 kmh NE 10.4 mph16.7 kmh 30.39 in1029.1 mb 0.00 in0.0 mm 0.00 in0.0 mm 0.00 in0.0 mm
10:00 PM 33.3°F0.7°C 9.8°F-12.3°C 37% 0.2 mph ENE0.3 kmh ENE 3.9 mph6.3 kmh 30.42 in1030.1 mb 0.00 in0.0 mm 0.00 in0.0 mm 0.00 in0.0 mm
10:15 PM 32.7°F0.4°C 9.3°F-12.6°C 37% Calm Calm -- 30.42 in1030.1 mb 0.00 in0.0 mm 0.00 in0.0 mm 0.00 in0.0 mm
10:30 PM 32.2°F0.1°C 8.8°F-12.9°C 37% 0.3 mph ENE0.5 kmh ENE 3.9 mph6.3 kmh 30.42 in1030.1 mb 0.00 in0.0 mm 0.00 in0.0 mm 0.00 in0.0 mm
10:45 PM 32.0°F0.0°C 9.2°F-12.7°C 38% 0.3 mph NE0.5 kmh NE 5.4 mph8.7 kmh 30.42 in1030.1 mb 0.00 in0.0 mm 0.00 in0.0 mm 0.00 in0.0 mm
11:00 PM 32.0°F0.0°C 9.2°F-12.7°C 38% 1.3 mph ENE2.1 kmh ENE 6.4 mph10.3 kmh 30.42 in1030.1 mb 0.00 in0.0 mm 0.00 in0.0 mm 0.00 in0.0 mm
11:15 PM 31.8°F-0.1°C 9.6°F-12.4°C 39% 0.5 mph E0.8 kmh E 5.4 mph8.7 kmh 30.42 in1030.1 mb 0.00 in0.0 mm 0.00 in0.0 mm 0.00 in0.0 mm
11:30 PM 31.5°F-0.3°C 9.9°F-12.3°C 40% 1.7 mph E2.7 kmh E 8.6 mph13.8 kmh 30.42 in1030.1 mb 0.00 in0.0 mm 0.00 in0.0 mm 0.00 in0.0 mm
11:45 PM 31.3°F-0.4°C 10.3°F-12.1°C 41% 3.9 mph E6.3 kmh E 7.9 mph12.7 kmh 30.42 in1030.1 mb 0.00 in0.0 mm 0.00 in0.0 mm 0.00 in0.0 mm